Crystal Falls, MI (49920)

8:47 PM CDT on August 30, 2015 (GMT -0500)
Bates Tower | | Change Station
CLOSE
Current Station
Personal Weather Station
Location: Iron River, MI
Elevation: 1765 ft
Nearby Weather Stations

Elev 1765 ft 46.10 °N, 88.54 °W | Updated 2 minutes ago

Clear
Clear
68.5 °F
Feels Like 68.5 °F
N
6.0
Wind Variable Wind from WSW
Gusts 11.0 mph

Today
High -- | Low -- °F
--% Chance of Precip.
Yesterday
High -- | Low -- °F
Precip. -- in
6:11 AM 7:36 PM
Full, 97% visible
Pressure 29.93 in
Visibility 10.0 miles
Clouds Clear
Dew Point 64 °F
Humidity 84%
Rainfall 0.00 in
Snow Depth Not available.
UV 0 out of 12
Pollen 9.10 out of 12
Air Quality Not available.
Flu Activity Not available.
METAR KIMT 310054Z AUTO 17005KT 10SM CLR 21/18 A2993 RMK AO2 SLP135 T02060178
Pressure 29.93 in
Visibility 10.0 miles
Clouds Clear
Dew Point 64 °F
Humidity 84%
Rainfall 0.00 in
Snow Depth Not available.
UV 0 out of 12
Pollen 9.10 out of 12
Air Quality Not available.
Flu Activity Not available.
METAR KIMT 310054Z AUTO 17005KT 10SM CLR 21/18 A2993 RMK AO2 SLP135 T02060178

10-Day Weather Forecast

×

Almanac

Astronomy

Aug. 30, 2015 Rise Set
Actual Time
Civil Twilight
Nautical Twilight
Astronomical Twilight
Moon
Length of Visible Light
Length of Day
Tomorrow will be .
, % of the Moon is Illuminated

Today's Extremes

State Highs State Lows

Community

WunderPhotos

Upload Photos

1,851,145 photos uploaded!

WunderBlogs® & News

Nearby

Air Quality

  Air Quality AQ Index Pollutant
Not available.

Snow Depth

Station Depth Elevation

Earthquake Activity

City Distance Mag. Time & Date
Minimum magnitude displayed is 2.5.

Coastal Water Temperatures

Place Temperature

Stations

Nearby Weather Stations

Station Location Temp. Windchill Dew Point Humidity Wind Precip. Elev Updated Type